Time;durP1;ratioP1;P1;durP2;ratioP2;P2;SDS_P1;SDS_P2;PMS_P1;PMS_P2;Temp;Humidity;BMP_temperature;BMP_pressure;BME280_temperature;BME280_humidity;BME280_pressure;Samples;Min_cycle;Max_cycle;Signal;HPM_P1;HPM_P2
2022/08/21 00:01:42;;;;;;;9.60;4.00;;;15.80;99.90;;;;;;5074836;28;20391;-74
2022/08/21 00:04:09;;;;;;;12.02;4.25;;;15.70;99.90;;;;;;5071461;28;20044;-74
2022/08/21 00:06:37;;;;;;;8.35;4.32;;;15.70;99.90;;;;;;5082902;28;20040;-74
2022/08/21 00:09:05;;;;;;;13.65;4.68;;;15.70;99.90;;;;;;5083061;28;20056;-73
2022/08/21 00:11:30;;;;;;;11.35;4.78;;;15.60;99.90;;;;;;5101527;28;20169;-73
2022/08/21 00:13:56;;;;;;;8.57;4.22;;;15.60;99.90;;;;;;5081058;28;20139;-73
2022/08/21 00:16:22;;;;;;;13.73;4.80;;;15.60;99.90;;;;;;5086593;28;20047;-74
2022/08/21 00:18:48;;;;;;;10.18;4.85;;;15.60;99.90;;;;;;5081117;28;20059;-75
2022/08/21 00:21:15;;;;;;;12.70;4.50;;;15.50;99.90;;;;;;5041963;28;20040;-74
2022/08/21 00:23:41;;;;;;;11.25;4.30;;;15.50;99.90;;;;;;5065814;28;20235;-74
2022/08/21 00:26:07;;;;;;;13.88;4.50;;;15.50;99.90;;;;;;5065602;28;20226;-74
2022/08/21 00:28:33;;;;;;;9.73;4.25;;;15.40;99.90;;;;;;5068220;28;20507;-74
2022/08/21 00:30:59;;;;;;;17.15;4.88;;;15.40;99.90;;;;;;5069705;28;20052;-74
2022/08/21 00:33:26;;;;;;;10.95;4.05;;;15.40;99.90;;;;;;5063973;28;20154;-75
2022/08/21 00:35:52;;;;;;;11.52;4.22;;;15.40;99.90;;;;;;5049123;28;20097;-75
2022/08/21 00:38:19;;;;;;;17.02;4.50;;;15.30;99.90;;;;;;5050625;28;20485;-75
2022/08/21 00:40:52;;;;;;;8.98;4.05;;;15.30;99.90;;;;;;5081398;28;20556;-74
2022/08/21 00:43:21;;;;;;;10.07;4.20;;;15.20;99.90;;;;;;5064507;28;20041;-75
2022/08/21 00:45:48;;;;;;;9.93;4.30;;;15.20;99.90;;;;;;5053070;28;20626;-74
2022/08/21 00:48:14;;;;;;;8.55;3.90;;;15.10;99.90;;;;;;5063821;28;20051;-73
2022/08/21 00:50:45;;;;;;;11.52;4.10;;;15.10;99.90;;;;;;5063490;28;20036;-74
2022/08/21 00:53:13;;;;;;;13.82;4.45;;;15.10;99.90;;;;;;5054352;28;20203;-74
2022/08/21 00:55:40;;;;;;;8.77;4.15;;;15.00;99.90;;;;;;5046884;28;20051;-75
2022/08/21 00:58:08;;;;;;;10.18;4.20;;;15.00;99.90;;;;;;5056337;28;20044;-74
2022/08/21 01:00:38;;;;;;;9.73;4.00;;;15.00;99.90;;;;;;5062116;28;20395;-74
2022/08/21 01:03:08;;;;;;;10.88;4.57;;;14.90;99.90;;;;;;5068956;28;20032;-74
2022/08/21 01:05:35;;;;;;;12.52;4.63;;;14.90;99.90;;;;;;5042617;28;20040;-74
2022/08/21 01:08:00;;;;;;;9.20;4.20;;;14.90;99.90;;;;;;5062643;28;20123;-74
2022/08/21 01:10:26;;;;;;;11.88;4.40;;;14.90;99.90;;;;;;5049707;28;20905;-74
2022/08/21 01:12:54;;;;;;;10.43;3.95;;;14.80;99.90;;;;;;5060421;28;20093;-74
2022/08/21 01:15:24;;;;;;;11.25;4.47;;;14.80;99.90;;;;;;5050422;28;20039;-74
2022/08/21 01:17:50;;;;;;;11.57;4.38;;;14.80;99.90;;;;;;5065780;28;20455;-74
2022/08/21 01:20:16;;;;;;;7.95;4.25;;;14.80;99.90;;;;;;5074657;28;20064;-74
2022/08/21 01:22:42;;;;;;;12.65;4.32;;;14.80;99.90;;;;;;5064112;28;20036;-74
2022/08/21 01:25:10;;;;;;;12.48;4.65;;;14.80;99.90;;;;;;5067340;28;20037;-73
2022/08/21 01:27:37;;;;;;;10.88;4.18;;;14.80;99.90;;;;;;5082119;28;20106;-74
2022/08/21 01:30:12;;;;;;;11.60;4.65;;;14.80;99.90;;;;;;5084012;28;20032;-74
2022/08/21 01:32:38;;;;;;;12.65;5.00;;;14.80;99.90;;;;;;5065575;28;21021;-74
2022/08/21 01:35:05;;;;;;;11.43;4.47;;;14.80;99.90;;;;;;5065940;28;20028;-73
2022/08/21 01:37:30;;;;;;;12.85;4.88;;;14.80;99.90;;;;;;5082184;28;20032;-74
2022/08/21 01:39:56;;;;;;;9.55;4.50;;;14.80;99.90;;;;;;5073137;28;20394;-75
2022/08/21 01:42:22;;;;;;;9.90;4.90;;;14.80;99.90;;;;;;5078714;28;20032;-74
2022/08/21 01:44:47;;;;;;;14.65;4.95;;;14.80;99.90;;;;;;5063916;28;20052;-74
2022/08/21 01:47:15;;;;;;;11.48;5.25;;;14.80;99.90;;;;;;5078565;28;20507;-74
2022/08/21 01:49:42;;;;;;;11.65;5.20;;;14.80;99.90;;;;;;5067730;28;20036;-75
2022/08/21 01:52:08;;;;;;;11.48;4.95;;;14.80;99.90;;;;;;5088780;28;20040;-73
2022/08/21 01:54:34;;;;;;;13.13;5.00;;;14.80;99.90;;;;;;5062387;28;20131;-73
2022/08/21 01:57:00;;;;;;;12.57;4.68;;;14.80;99.90;;;;;;5081382;28;20127;-73
2022/08/21 01:59:27;;;;;;;9.60;4.40;;;14.70;99.90;;;;;;5082093;28;20475;-75
2022/08/21 02:01:55;;;;;;;14.18;5.00;;;14.70;99.90;;;;;;5067892;28;20040;-75
2022/08/21 02:04:22;;;;;;;13.10;4.80;;;14.80;99.90;;;;;;5079998;28;20076;-74
2022/08/21 02:06:48;;;;;;;10.90;5.03;;;14.70;99.90;;;;;;5063160;28;20491;-75
2022/08/21 02:09:14;;;;;;;12.90;5.20;;;14.80;99.90;;;;;;5081660;28;20046;-75
2022/08/21 02:11:41;;;;;;;11.63;5.10;;;14.70;99.90;;;;;;5079728;28;20044;-75
2022/08/21 02:14:12;;;;;;;17.42;5.53;;;14.70;99.90;;;;;;5083119;28;20040;-74
2022/08/21 02:16:40;;;;;;;14.40;5.65;;;14.70;99.90;;;;;;5079106;28;20118;-74
2022/08/21 02:19:06;;;;;;;10.75;5.47;;;14.70;99.90;;;;;;5065179;28;20052;-75
2022/08/21 02:21:32;;;;;;;14.10;5.78;;;14.50;99.90;;;;;;5063518;28;20043;-74
2022/08/21 02:23:57;;;;;;;13.15;5.90;;;14.60;99.90;;;;;;5080964;28;20024;-74
2022/08/21 02:26:23;;;;;;;13.73;5.85;;;14.60;99.90;;;;;;5083364;28;20105;-74
2022/08/21 02:28:49;;;;;;;13.77;5.85;;;14.60;99.90;;;;;;5076796;28;20146;-75
2022/08/21 02:31:14;;;;;;;10.80;6.00;;;14.50;99.90;;;;;;5080208;28;20409;-75
2022/08/21 02:33:40;;;;;;;13.07;6.30;;;14.60;99.90;;;;;;5083763;28;20036;-74
2022/08/21 02:36:08;;;;;;;14.95;6.40;;;14.60;99.90;;;;;;5065584;28;20036;-75
2022/08/21 02:38:38;;;;;;;14.50;5.75;;;14.50;99.90;;;;;;5077712;28;20057;-75
2022/08/21 02:41:12;;;;;;;12.60;5.68;;;14.50;99.90;;;;;;5071862;28;20063;-74
2022/08/21 02:43:38;;;;;;;13.88;6.00;;;14.50;99.90;;;;;;5080238;28;20040;-74
2022/08/21 02:46:05;;;;;;;13.45;5.65;;;14.50;99.90;;;;;;5079977;28;20055;-75
2022/08/21 02:48:32;;;;;;;12.93;6.20;;;14.50;99.90;;;;;;5079684;28;20051;-75
2022/08/21 02:51:09;;;;;;;11.60;6.25;;;14.50;99.90;;;;;;5082756;28;20118;-74
2022/08/21 02:53:35;;;;;;;12.70;6.40;;;14.40;99.90;;;;;;5061857;28;20044;-74
2022/08/21 02:56:04;;;;;;;16.73;6.00;;;14.40;99.90;;;;;;5066419;28;20051;-73
2022/08/21 02:58:34;;;;;;;10.05;6.13;;;14.40;99.90;;;;;;5080089;28;20040;-73
2022/08/21 03:01:00;;;;;;;10.75;6.25;;;14.40;99.90;;;;;;5078937;28;20378;-73
2022/08/21 03:03:27;;;;;;;13.35;6.53;;;14.40;99.90;;;;;;5062850;28;20040;-73
2022/08/21 03:05:54;;;;;;;12.07;6.05;;;14.30;99.90;;;;;;5079081;28;20150;-74
2022/08/21 03:08:20;;;;;;;14.40;6.53;;;14.30;99.90;;;;;;5081500;28;20032;-73
2022/08/21 03:10:49;;;;;;;15.32;6.50;;;14.40;99.90;;;;;;5082498;28;20097;-74
2022/08/21 03:13:33;;;;;;;11.15;6.30;;;14.30;99.90;;;;;;5072255;28;20089;-73
2022/08/21 03:15:59;;;;;;;12.53;6.93;;;14.30;99.90;;;;;;5065036;28;20040;-73
2022/08/21 03:18:25;;;;;;;14.90;6.90;;;14.30;99.90;;;;;;5066452;28;20047;-73
2022/08/21 03:20:51;;;;;;;14.93;6.97;;;14.30;99.90;;;;;;5079560;28;20531;-74
2022/08/21 03:23:17;;;;;;;13.07;6.40;;;14.30;99.90;;;;;;5063645;28;20465;-74
2022/08/21 03:25:44;;;;;;;12.57;6.45;;;14.20;99.90;;;;;;5067968;28;20039;-74
2022/08/21 03:28:13;;;;;;;15.95;6.97;;;14.20;99.90;;;;;;5063758;28;20040;-74
2022/08/21 03:30:43;;;;;;;14.82;7.07;;;14.20;99.90;;;;;;5079857;28;20050;-74
2022/08/21 03:33:09;;;;;;;12.82;6.78;;;14.20;99.90;;;;;;5059654;28;20079;-74
2022/08/21 03:35:35;;;;;;;13.57;7.10;;;14.20;99.90;;;;;;5058597;28;20036;-74
2022/08/21 03:38:01;;;;;;;12.95;6.88;;;14.20;99.90;;;;;;5079825;28;20098;-74
2022/08/21 03:40:29;;;;;;;11.05;6.15;;;14.20;99.90;;;;;;5080986;28;20417;-74
2022/08/21 03:42:54;;;;;;;10.15;6.57;;;14.10;99.90;;;;;;5063499;28;20059;-75
2022/08/21 03:45:21;;;;;;;12.55;6.88;;;14.10;99.90;;;;;;5083558;28;20040;-75
2022/08/21 03:47:58;;;;;;;13.13;7.03;;;14.20;99.90;;;;;;5084002;28;20059;-75
2022/08/21 03:50:35;;;;;;;16.15;7.15;;;14.10;99.90;;;;;;5066661;28;20070;-75
2022/08/21 03:53:00;;;;;;;13.48;7.00;;;14.10;99.90;;;;;;5067724;28;20085;-75
2022/08/21 03:55:27;;;;;;;13.25;6.72;;;14.10;99.90;;;;;;5085911;28;20530;-75
2022/08/21 03:57:52;;;;;;;15.43;6.68;;;14.10;99.90;;;;;;5067561;28;20181;-75
2022/08/21 04:00:20;;;;;;;15.88;6.75;;;14.10;99.90;;;;;;5083868;28;20127;-75
2022/08/21 04:02:46;;;;;;;14.93;6.65;;;14.00;99.90;;;;;;5084782;28;20036;-75
2022/08/21 04:05:14;;;;;;;12.65;6.57;;;14.10;99.90;;;;;;5065132;28;20190;-75
2022/08/21 04:07:40;;;;;;;13.73;6.80;;;14.00;99.90;;;;;;5083974;28;20136;-75
2022/08/21 04:10:06;;;;;;;12.60;6.38;;;14.10;99.90;;;;;;5082552;28;20495;-75
2022/08/21 04:12:32;;;;;;;15.27;7.05;;;14.10;99.90;;;;;;5064918;28;20093;-75
2022/08/21 04:14:58;;;;;;;15.93;7.03;;;14.10;99.90;;;;;;5089808;28;20036;-75
2022/08/21 04:17:23;;;;;;;15.15;7.05;;;14.00;99.90;;;;;;5089643;28;20424;-75
2022/08/21 04:19:50;;;;;;;14.00;6.95;;;14.00;99.90;;;;;;5090481;28;20520;-74
2022/08/21 04:22:16;;;;;;;12.57;7.10;;;14.00;99.90;;;;;;5086843;28;20122;-74
2022/08/21 04:24:43;;;;;;;19.05;7.63;;;14.10;99.90;;;;;;5091457;28;20127;-74
2022/08/21 04:27:08;;;;;;;18.25;7.63;;;14.10;99.90;;;;;;5089366;28;20155;-74
2022/08/21 04:29:34;;;;;;;13.68;7.32;;;14.00;99.90;;;;;;5082705;28;20152;-74
2022/08/21 04:32:00;;;;;;;11.98;6.82;;;14.00;99.90;;;;;;5085121;28;20060;-74
2022/08/21 04:34:25;;;;;;;12.90;7.10;;;14.00;99.90;;;;;;5080218;28;20048;-74
2022/08/21 04:36:51;;;;;;;12.75;7.28;;;14.00;99.90;;;;;;5086638;28;20122;-74
2022/08/21 04:39:16;;;;;;;15.30;7.57;;;14.10;99.90;;;;;;5085536;28;20118;-72
2022/08/21 04:41:42;;;;;;;17.20;6.55;;;14.10;99.90;;;;;;5089814;28;20083;-72
2022/08/21 04:44:08;;;;;;;15.20;7.15;;;14.00;99.90;;;;;;5079933;28;20480;-73
2022/08/21 04:46:34;;;;;;;15.70;6.68;;;14.10;99.90;;;;;;5083116;28;20044;-73
2022/08/21 04:48:59;;;;;;;13.90;6.90;;;14.10;99.90;;;;;;5081418;28;20134;-74
2022/08/21 04:51:30;;;;;;;13.98;7.22;;;14.10;99.90;;;;;;5082947;28;20052;-74
2022/08/21 04:54:08;;;;;;;14.32;6.97;;;14.10;99.90;;;;;;5068347;28;20075;-74
2022/08/21 04:56:36;;;;;;;15.82;7.40;;;14.20;99.90;;;;;;5084398;28;20056;-74
2022/08/21 04:59:10;;;;;;;12.23;6.55;;;14.20;99.90;;;;;;5080587;28;20069;-74
2022/08/21 05:01:37;;;;;;;11.55;7.07;;;14.30;99.90;;;;;;5077053;28;20496;-74
2022/08/21 05:04:05;;;;;;;17.08;7.50;;;14.20;99.90;;;;;;5067549;28;20059;-74
2022/08/21 05:06:34;;;;;;;12.75;6.88;;;14.20;99.90;;;;;;5080615;28;20046;-74
2022/08/21 05:09:01;;;;;;;13.75;6.70;;;14.20;99.90;;;;;;5082728;28;20047;-74
2022/08/21 05:11:27;;;;;;;14.45;7.20;;;14.30;99.90;;;;;;5064033;28;20032;-75
2022/08/21 05:13:53;;;;;;;20.23;6.97;;;14.30;99.90;;;;;;5062367;28;20182;-75
2022/08/21 05:16:19;;;;;;;14.95;7.25;;;14.40;99.90;;;;;;5075952;28;20525;-74
2022/08/21 05:18:47;;;;;;;17.50;6.95;;;14.40;99.90;;;;;;5078816;28;20044;-75
2022/08/21 05:21:13;;;;;;;16.42;7.53;;;14.40;99.90;;;;;;5067643;28;20036;-75
2022/08/21 05:23:38;;;;;;;14.18;6.75;;;14.40;99.90;;;;;;5079844;28;20054;-75
2022/08/21 05:26:04;;;;;;;17.42;7.10;;;14.50;99.90;;;;;;5090219;28;20335;-75
2022/08/21 05:28:33;;;;;;;16.42;6.72;;;14.50;99.90;;;;;;5086619;28;20050;-73
2022/08/21 05:30:59;;;;;;;13.20;6.95;;;14.50;99.90;;;;;;5066810;28;20062;-74
2022/08/21 05:33:25;;;;;;;15.30;6.50;;;14.60;99.90;;;;;;5079324;28;20432;-75
2022/08/21 05:35:55;;;;;;;13.13;6.95;;;14.60;99.90;;;;;;5082360;28;20653;-75
2022/08/21 05:38:21;;;;;;;12.48;6.15;;;14.70;99.90;;;;;;5084708;28;20103;-74
2022/08/21 05:40:47;;;;;;;15.40;6.93;;;14.80;99.90;;;;;;5083793;28;20040;-75
2022/08/21 05:43:13;;;;;;;12.90;6.82;;;14.80;99.90;;;;;;5079193;28;20121;-75
2022/08/21 05:45:40;;;;;;;11.27;6.20;;;14.90;99.90;;;;;;5063321;28;20085;-74
2022/08/21 05:48:11;;;;;;;12.30;6.30;;;14.90;99.90;;;;;;5084817;28;20495;-75
2022/08/21 05:50:37;;;;;;;13.60;6.15;;;15.00;99.90;;;;;;5081457;28;20047;-75
2022/08/21 05:53:04;;;;;;;13.02;5.72;;;15.00;99.90;;;;;;5065764;28;20151;-74
2022/08/21 05:55:30;;;;;;;15.70;6.55;;;15.10;99.90;;;;;;5069858;28;20048;-75
2022/08/21 05:57:55;;;;;;;14.85;6.45;;;15.10;99.90;;;;;;5068663;28;20051;-75
2022/08/21 06:00:22;;;;;;;13.45;4.88;;;15.20;99.90;;;;;;5086161;28;20058;-74
2022/08/21 06:02:50;;;;;;;11.13;5.22;;;15.40;99.90;;;;;;5077427;28;20123;-74
2022/08/21 06:05:17;;;;;;;14.25;5.80;;;15.40;99.90;;;;;;5082614;28;20056;-75
2022/08/21 06:07:43;;;;;;;12.77;5.90;;;15.50;99.90;;;;;;5064344;28;20049;-75
2022/08/21 06:10:09;;;;;;;16.88;6.25;;;15.60;99.90;;;;;;5083542;28;20043;-75
2022/08/21 06:12:34;;;;;;;11.50;5.30;;;15.70;99.90;;;;;;5078315;28;20121;-74
2022/08/21 06:15:00;;;;;;;13.07;5.55;;;15.80;99.90;;;;;;5081302;28;20040;-75
2022/08/21 06:17:26;;;;;;;16.33;5.70;;;15.80;99.90;;;;;;5081246;28;20121;-74
2022/08/21 06:19:54;;;;;;;15.55;5.60;;;15.80;99.90;;;;;;5081864;28;20067;-74
2022/08/21 06:22:21;;;;;;;14.18;5.28;;;15.90;99.90;;;;;;5081185;28;20044;-75
2022/08/21 06:24:47;;;;;;;15.63;5.10;;;16.00;99.90;;;;;;5084624;28;20070;-75
2022/08/21 06:27:12;;;;;;;16.60;5.45;;;16.00;99.90;;;;;;5086329;28;20036;-75
2022/08/21 06:29:38;;;;;;;10.20;4.43;;;16.10;99.90;;;;;;5081655;28;20052;-75
2022/08/21 06:32:08;;;;;;;16.40;5.22;;;16.20;99.90;;;;;;5079856;28;20043;-76
2022/08/21 06:34:39;;;;;;;17.50;4.95;;;16.30;99.90;;;;;;5065937;28;20455;-76
2022/08/21 06:37:04;;;;;;;13.20;4.90;;;16.40;99.90;;;;;;5081566;28;20044;-75
2022/08/21 06:39:31;;;;;;;14.77;5.18;;;16.50;99.90;;;;;;5080476;28;20390;-75
2022/08/21 06:41:57;;;;;;;14.55;4.70;;;16.50;99.90;;;;;;5066948;28;20121;-75
2022/08/21 06:44:23;;;;;;;17.48;5.32;;;16.60;99.90;;;;;;5084113;28;20039;-76
2022/08/21 06:46:48;;;;;;;14.38;5.07;;;16.60;99.90;;;;;;5081561;28;20391;-76
2022/08/21 06:49:14;;;;;;;16.90;5.07;;;16.70;99.90;;;;;;5068373;28;20047;-77
2022/08/21 06:51:40;;;;;;;18.80;4.60;;;16.80;99.90;;;;;;5084285;28;20132;-76
2022/08/21 06:54:06;;;;;;;18.25;4.55;;;16.90;99.90;;;;;;5084424;28;20100;-75
2022/08/21 06:56:33;;;;;;;14.32;4.07;;;17.00;99.90;;;;;;5068265;28;20039;-76
2022/08/21 06:58:59;;;;;;;18.50;4.50;;;17.00;99.90;;;;;;5083063;28;20130;-76
2022/08/21 07:01:25;;;;;;;19.38;4.25;;;17.10;99.90;;;;;;5086677;28;20138;-76
2022/08/21 07:03:52;;;;;;;17.58;4.05;;;17.20;99.90;;;;;;5080997;28;20039;-75
2022/08/21 07:06:17;;;;;;;14.90;4.40;;;17.30;99.90;;;;;;5068125;28;20035;-75
2022/08/21 07:08:46;;;;;;;16.65;3.60;;;17.40;99.90;;;;;;5069665;28;20047;-75
2022/08/21 07:11:22;;;;;;;14.80;3.55;;;17.50;99.90;;;;;;5066618;28;20470;-75
2022/08/21 07:13:51;;;;;;;14.82;4.38;;;17.50;99.90;;;;;;5066982;28;20048;-75
2022/08/21 07:16:16;;;;;;;16.95;3.63;;;17.60;99.90;;;;;;5085671;28;20093;-76
2022/08/21 07:18:42;;;;;;;9.77;3.17;;;17.70;99.90;;;;;;5065821;28;20032;-76
2022/08/21 07:21:08;;;;;;;10.82;3.33;;;17.70;99.90;;;;;;5068305;28;20055;-75
2022/08/21 07:23:43;;;;;;;13.52;3.08;;;17.80;99.90;;;;;;5089486;28;20048;-75
2022/08/21 07:26:09;;;;;;;12.45;3.15;;;17.90;99.90;;;;;;5088903;28;20031;-76
2022/08/21 07:28:35;;;;;;;13.10;3.53;;;18.00;99.90;;;;;;5082305;28;20108;-75
2022/08/21 07:31:04;;;;;;;11.57;3.53;;;18.00;99.90;;;;;;5080915;28;20048;-76
2022/08/21 07:33:32;;;;;;;12.18;2.92;;;18.20;99.90;;;;;;5068791;28;20040;-75
2022/08/21 07:35:59;;;;;;;13.48;3.15;;;18.30;99.90;;;;;;5075728;28;21072;-76
2022/08/21 07:38:25;;;;;;;10.90;2.70;;;18.40;99.90;;;;;;5082473;28;20047;-75
2022/08/21 07:40:53;;;;;;;8.25;2.75;;;18.50;99.90;;;;;;5079693;28;20120;-75
2022/08/21 07:43:19;;;;;;;7.65;2.42;;;18.60;99.90;;;;;;5075407;28;20040;-75
2022/08/21 07:45:45;;;;;;;9.55;2.60;;;18.60;99.90;;;;;;5077071;28;20400;-75
2022/08/21 07:48:11;;;;;;;12.27;2.40;;;18.70;99.90;;;;;;5079220;28;21973;-72
2022/08/21 07:50:37;;;;;;;10.90;2.70;;;18.70;99.90;;;;;;5064107;28;20051;-74
2022/08/21 07:53:04;;;;;;;11.82;2.35;;;18.80;99.90;;;;;;5067715;28;20447;-73
2022/08/21 07:55:29;;;;;;;12.15;2.45;;;18.90;99.90;;;;;;5079584;28;20048;-76
2022/08/21 07:57:55;;;;;;;11.43;2.22;;;18.90;99.90;;;;;;5062182;28;20044;-76
2022/08/21 08:00:24;;;;;;;9.40;2.38;;;18.90;99.90;;;;;;5083924;28;20798;-75
2022/08/21 08:02:51;;;;;;;11.60;2.55;;;19.00;99.90;;;;;;5085039;28;20518;-75
2022/08/21 08:05:19;;;;;;;11.13;2.53;;;19.10;99.90;;;;;;5078395;28;20059;-73
2022/08/21 08:07:45;;;;;;;11.20;2.50;;;19.30;99.90;;;;;;5077266;28;20162;-75
2022/08/21 08:10:11;;;;;;;9.82;2.72;;;19.50;99.90;;;;;;5078963;28;20447;-74
2022/08/21 08:12:40;;;;;;;16.73;2.95;;;19.70;99.90;;;;;;5078548;28;20375;-75
2022/08/21 08:15:08;;;;;;;12.90;2.47;;;19.80;99.90;;;;;;5084804;28;20253;-76
2022/08/21 08:17:33;;;;;;;14.30;2.88;;;19.90;99.90;;;;;;5083966;28;20257;-75
2022/08/21 08:20:00;;;;;;;14.07;2.60;;;19.90;99.90;;;;;;5063671;28;20048;-75
2022/08/21 08:22:27;;;;;;;12.60;2.67;;;20.00;99.90;;;;;;5082068;28;20047;-75
2022/08/21 08:24:53;;;;;;;15.93;3.03;;;20.10;99.90;;;;;;5080405;28;20139;-75
2022/08/21 08:27:20;;;;;;;8.30;2.30;;;20.10;99.90;;;;;;5065309;28;20571;-75
2022/08/21 08:29:47;;;;;;;11.57;2.42;;;20.10;99.90;;;;;;5083692;28;20070;-74
2022/08/21 08:32:12;;;;;;;11.80;2.53;;;20.20;99.90;;;;;;5085199;28;20122;-74
2022/08/21 08:34:39;;;;;;;10.90;2.72;;;20.20;99.90;;;;;;5082687;28;20503;-75
2022/08/21 08:37:06;;;;;;;18.60;3.65;;;20.30;99.90;;;;;;5084894;28;20982;-75
2022/08/21 08:39:33;;;;;;;11.13;3.10;;;20.30;99.90;;;;;;5074058;28;20039;-74
2022/08/21 08:42:05;;;;;;;11.20;2.85;;;20.30;99.90;;;;;;5069672;28;20076;-73
2022/08/21 08:44:32;;;;;;;13.32;2.78;;;20.40;99.90;;;;;;5068287;28;20074;-73
2022/08/21 08:46:59;;;;;;;21.85;2.92;;;20.40;99.90;;;;;;5081191;28;20074;-73
2022/08/21 08:49:36;;;;;;;12.48;2.97;;;20.40;99.90;;;;;;5080355;28;20074;-73
2022/08/21 08:52:18;;;;;;;19.02;3.17;;;20.60;99.90;;;;;;5065119;28;20104;-74
2022/08/21 08:54:50;;;;;;;13.63;2.85;;;20.80;99.90;;;;;;5081606;28;20040;-75
2022/08/21 08:57:22;;;;;;;10.88;3.28;;;20.80;99.90;;;;;;5081793;28;20039;-74
2022/08/21 08:59:53;;;;;;;14.68;3.22;;;20.70;99.90;;;;;;5068767;28;20049;-75
2022/08/21 09:02:19;;;;;;;14.45;3.47;;;20.80;99.90;;;;;;5074332;28;20040;-75
2022/08/21 09:04:48;;;;;;;19.98;3.65;;;21.00;99.90;;;;;;5074552;28;20444;-77
2022/08/21 09:07:43;;;;;;;14.25;2.97;;;21.20;99.90;;;;;;5077581;28;20062;-77
2022/08/21 09:10:17;;;;;;;;;;;21.40;99.90;;;;;;4974284;28;20058;-74
2022/08/21 09:12:59;;;;;;;14.80;3.50;;;21.30;99.90;;;;;;4991173;28;19921;-76
2022/08/21 09:15:57;;;;;;;15.70;3.80;;;21.30;99.90;;;;;;5003318;28;20066;-76
2022/08/21 09:18:50;;;;;;;19.30;3.83;;;21.20;99.90;;;;;;4987700;28;20869;-77
2022/08/21 09:21:30;;;;;;;14.82;3.15;;;21.20;99.90;;;;;;4990430;28;20060;-75
2022/08/21 09:24:45;;;;;;;16.30;2.83;;;21.30;99.90;;;;;;4994576;28;20046;-74
2022/08/21 09:27:14;;;;;;;11.82;3.30;;;21.40;99.90;;;;;;4916568;29;20047;-76
2022/08/21 09:29:44;;;;;;;15.27;3.28;;;21.60;99.90;;;;;;4914529;29;20095;-75
2022/08/21 09:32:33;;;;;;;14.90;2.67;;;21.60;99.90;;;;;;4914018;29;20187;-75
2022/08/21 09:35:10;;;;;;;11.70;2.97;;;21.50;99.90;;;;;;4907221;29;20044;-74
2022/08/21 09:37:46;;;;;;;15.77;2.90;;;21.70;99.90;;;;;;4909050;29;20048;-74
2022/08/21 09:40:35;;;;;;;12.15;3.20;;;21.60;99.90;;;;;;4920002;29;20094;-75
2022/08/21 09:43:06;;;;;;;13.73;3.13;;;21.60;99.90;;;;;;4900542;29;20060;-74
2022/08/21 09:45:34;;;;;;;13.15;2.58;;;21.60;99.90;;;;;;4905019;28;20172;-74
2022/08/21 09:48:13;;;;;;;14.10;3.00;;;21.70;99.90;;;;;;4985762;28;20092;-73
2022/08/21 09:50:40;;;;;;;13.05;2.83;;;21.90;99.90;;;;;;4980011;28;20041;-75
2022/08/21 09:53:26;;;;;;;12.80;2.92;;;22.10;99.90;;;;;;4966041;28;20050;-74
2022/08/21 09:58:48;;;;;;;15.52;2.80;;;22.50;99.90;;;;;;4983158;28;20054;-74
2022/08/21 10:01:43;;;;;;;10.65;2.75;;;22.80;99.90;;;;;;4987965;28;20073;-74
2022/08/21 10:04:10;;;;;;;12.77;3.03;;;22.90;99.90;;;;;;5071950;28;20116;-74
2022/08/21 10:06:36;;;;;;;20.70;2.95;;;22.70;99.90;;;;;;5087066;28;20043;-74
2022/08/21 10:09:12;;;;;;;11.48;2.70;;;22.80;99.90;;;;;;5072078;28;20056;-73
2022/08/21 10:11:39;;;;;;;11.02;2.60;;;22.90;99.90;;;;;;5092950;28;20069;-73
2022/08/21 10:14:13;;;;;;;15.00;2.97;;;23.10;99.90;;;;;;5084135;28;20043;-75
2022/08/21 10:17:00;;;;;;;13.48;2.55;;;23.30;99.90;;;;;;5069079;28;20047;-75
2022/08/21 10:19:48;;;;;;;11.10;2.80;;;23.60;99.90;;;;;;5058404;28;20778;-75
2022/08/21 10:22:29;;;;;;;8.25;2.38;;;23.90;99.90;;;;;;5057294;28;20418;-75
2022/08/21 10:25:20;;;;;;;11.23;2.47;;;24.40;99.90;;;;;;5074517;28;20044;-75
2022/08/21 10:28:12;;;;;;;12.70;2.53;;;24.60;99.90;;;;;;5056792;28;20184;-74
2022/08/21 10:30:55;;;;;;;11.23;2.20;;;24.70;99.90;;;;;;5057528;28;20037;-75
2022/08/21 10:33:34;;;;;;;8.60;2.20;;;24.40;99.90;;;;;;5081612;28;20048;-75
2022/08/21 10:36:14;;;;;;;12.68;2.58;;;24.10;99.90;;;;;;5072817;28;20054;-75
2022/08/21 10:38:42;;;;;;;7.78;1.98;;;23.90;99.90;;;;;;5076813;28;20467;-76
2022/08/21 10:41:30;;;;;;;9.45;2.15;;;23.80;99.90;;;;;;5075021;28;20456;-75
2022/08/21 10:44:38;;;;;;;10.07;2.80;;;23.50;99.90;;;;;;5057728;27;20096;-75
2022/08/21 10:47:35;;;;;;;12.77;2.70;;;23.10;99.90;;;;;;5084504;28;20536;-76
2022/08/21 10:50:10;;;;;;;15.18;2.97;;;22.90;99.90;;;;;;5057462;28;20451;-75
2022/08/21 10:53:02;;;;;;;14.35;3.58;;;22.60;99.90;;;;;;5079725;28;20051;-74
2022/08/21 10:56:00;;;;;;;13.00;2.70;;;22.50;99.90;;;;;;5058549;28;20103;-74
2022/08/21 10:58:31;;;;;;;13.05;3.30;;;22.30;99.90;;;;;;5059092;28;20051;-75
2022/08/21 11:01:07;;;;;;;7.85;2.75;;;22.30;99.90;;;;;;5059793;28;20052;-75
2022/08/21 11:03:45;;;;;;;9.45;2.60;;;22.20;99.90;;;;;;5060306;28;20051;-74
2022/08/21 11:06:25;;;;;;;14.55;3.25;;;22.20;99.90;;;;;;5075382;28;20058;-75
2022/08/21 11:08:59;;;;;;;12.00;2.75;;;22.30;99.90;;;;;;5056533;28;20055;-74
2022/08/21 11:11:36;;;;;;;;;;;22.60;99.90;;;;;;5078576;28;20051;-74
2022/08/21 11:14:34;;;;;;;14.05;2.95;;;23.10;99.90;;;;;;5074814;28;19916;-76
2022/08/21 11:17:09;;;;;;;12.75;2.95;;;23.10;99.90;;;;;;5076868;28;20495;-75
2022/08/21 11:19:47;;;;;;;11.85;2.58;;;23.50;99.90;;;;;;5063694;28;20079;-74
2022/08/21 11:22:36;;;;;;;12.18;3.08;;;23.90;99.90;;;;;;5087983;28;20031;-74
2022/08/21 11:25:18;;;;;;;6.40;2.17;;;24.30;99.90;;;;;;5063201;28;20059;-74
2022/08/21 11:28:05;;;;;;;9.45;2.35;;;24.50;99.90;;;;;;5071974;28;20051;-76
2022/08/21 11:30:49;;;;;;;14.70;2.45;;;24.60;99.90;;;;;;5086538;28;20379;-76
2022/08/21 11:33:27;;;;;;;16.13;3.08;;;24.80;99.90;;;;;;5065993;28;20486;-74
2022/08/21 11:36:17;;;;;;;9.48;2.53;;;25.40;99.90;;;;;;5077633;28;20089;-75
2022/08/21 11:38:53;;;;;;;11.20;2.35;;;26.00;99.90;;;;;;5076413;28;20040;-75
2022/08/21 11:42:14;;;;;;;11.43;2.50;;;26.50;99.90;;;;;;5082779;28;20036;-75
2022/08/21 11:44:55;;;;;;;9.40;2.40;;;26.90;99.90;;;;;;5048803;28;20044;-75
2022/08/21 11:47:55;;;;;;;7.95;2.28;;;26.90;99.90;;;;;;5090128;28;20066;-75
2022/08/21 11:50:27;;;;;;;10.88;2.38;;;26.60;99.90;;;;;;5088738;28;20078;-75
2022/08/21 11:52:59;;;;;;;9.05;2.40;;;26.20;99.90;;;;;;5079902;28;20449;-75
2022/08/21 11:55:28;;;;;;;12.65;2.38;;;25.80;99.90;;;;;;5086063;28;20063;-74
2022/08/21 11:58:18;;;;;;;10.20;2.60;;;25.70;99.90;;;;;;5091324;28;20048;-75
2022/08/21 12:00:55;;;;;;;8.23;2.20;;;25.50;99.90;;;;;;5072214;28;20056;-75
2022/08/21 12:03:27;;;;;;;9.65;2.63;;;25.70;99.90;;;;;;5095070;28;20171;-75
2022/08/21 12:06:07;;;;;;;8.30;2.28;;;25.80;99.90;;;;;;5079157;28;20059;-75
2022/08/21 12:08:42;;;;;;;8.93;2.25;;;26.20;99.90;;;;;;5075603;28;20052;-75
2022/08/21 12:11:17;;;;;;;11.75;2.28;;;26.50;99.90;;;;;;5093051;28;20490;-74
2022/08/21 12:13:57;;;;;;;9.77;1.95;;;26.70;99.90;;;;;;5092461;28;20522;-74
2022/08/21 12:16:49;;;;;;;7.90;2.10;;;26.90;99.90;;;;;;5090981;28;20047;-74
2022/08/21 12:19:23;;;;;;;8.50;2.17;;;27.20;99.90;;;;;;5088171;28;20051;-75
2022/08/21 12:22:09;;;;;;;9.20;1.95;;;27.30;99.40;;;;;;5089941;28;20075;-73
2022/08/21 12:24:45;;;;;;;8.95;2.50;;;27.20;99.00;;;;;;5069528;28;20495;-74
2022/08/21 12:27:20;;;;;;;8.98;2.65;;;26.80;99.40;;;;;;5090889;28;20043;-74
2022/08/21 12:30:01;;;;;;;10.18;2.17;;;26.70;99.70;;;;;;5092893;28;20048;-74
2022/08/21 12:32:26;;;;;;;7.35;1.83;;;26.70;99.90;;;;;;5075864;28;20043;-75
2022/08/21 12:35:07;;;;;;;8.88;2.28;;;26.70;99.90;;;;;;5076214;28;20375;-74
2022/08/21 12:37:48;;;;;;;7.80;2.08;;;26.70;99.90;;;;;;5095261;28;20087;-74
2022/08/21 12:40:16;;;;;;;8.40;2.30;;;26.90;99.90;;;;;;5087641;28;20036;-74
2022/08/21 12:42:46;;;;;;;7.93;2.17;;;27.00;99.90;;;;;;5079539;28;20043;-73
2022/08/21 12:45:41;;;;;;;8.60;1.80;;;26.90;99.80;;;;;;5090477;28;20046;-73
2022/08/21 12:48:12;;;;;;;8.07;1.92;;;26.70;99.60;;;;;;5058011;28;20056;-74
2022/08/21 12:50:47;;;;;;;7.82;1.70;;;26.90;99.80;;;;;;5090687;28;20051;-75
2022/08/21 12:53:19;;;;;;;6.47;1.73;;;27.20;98.90;;;;;;5073414;28;20070;-75
2022/08/21 12:55:44;;;;;;;5.47;1.92;;;27.10;98.40;;;;;;5086837;28;20066;-74
2022/08/21 12:58:21;;;;;;;8.60;1.80;;;26.80;98.40;;;;;;5087167;28;20457;-75
2022/08/21 13:01:06;;;;;;;7.93;1.80;;;26.30;98.20;;;;;;5090354;28;20451;-74